Time;durP1;ratioP1;P1;durP2;ratioP2;P2;SDS_P1;SDS_P2;PMS_P1;PMS_P2;Temp;Humidity;BMP_temperature;BMP_pressure;BME280_temperature;BME280_humidity;BME280_pressure;Samples;Min_cycle;Max_cycle;Signal;HPM_P1;HPM_P2
2022/08/26 00:00:48;;;;;;;1.90;1.53;;;20.70;99.90;;;;;;5094674;28;20435;-83
2022/08/26 00:03:17;;;;;;;1.73;1.17;;;20.70;99.90;;;;;;5094610;28;20471;-83
2022/08/26 00:05:45;;;;;;;1.17;1.10;;;20.70;99.90;;;;;;5094596;28;20455;-83
2022/08/26 00:08:15;;;;;;;2.17;1.50;;;20.60;99.90;;;;;;5094610;28;20450;-82
2022/08/26 00:10:42;;;;;;;2.60;1.33;;;20.60;99.90;;;;;;5094190;28;20454;-83
2022/08/26 00:13:10;;;;;;;1.27;1.17;;;20.60;99.90;;;;;;5094067;28;20483;-83
2022/08/26 00:15:37;;;;;;;1.47;1.30;;;20.60;99.90;;;;;;5094425;28;20444;-83
2022/08/26 00:18:04;;;;;;;1.10;1.00;;;20.60;99.90;;;;;;5094080;28;20459;-83
2022/08/26 00:20:33;;;;;;;1.43;1.17;;;20.60;99.90;;;;;;5094393;28;20450;-83
2022/08/26 00:23:01;;;;;;;1.77;0.90;;;20.50;99.90;;;;;;5094003;28;20464;-83
2022/08/26 00:25:29;;;;;;;1.37;1.30;;;20.50;99.90;;;;;;5093879;28;20479;-83
2022/08/26 00:27:56;;;;;;;0.83;0.80;;;20.50;99.90;;;;;;5096536;28;20448;-83
2022/08/26 00:30:26;;;;;;;1.37;1.27;;;20.40;99.90;;;;;;5093595;28;20443;-83
2022/08/26 00:32:54;;;;;;;1.90;1.10;;;20.40;99.90;;;;;;5094004;28;20491;-82
2022/08/26 00:35:21;;;;;;;2.47;1.17;;;20.40;99.90;;;;;;5094097;28;20451;-83
2022/08/26 00:37:47;;;;;;;1.20;1.10;;;20.40;99.90;;;;;;5093740;28;20826;-83
2022/08/26 00:40:18;;;;;;;1.73;1.23;;;20.40;99.90;;;;;;5094017;28;20456;-82
2022/08/26 00:42:46;;;;;;;0.97;0.87;;;20.40;99.90;;;;;;5093931;28;20467;-82
2022/08/26 00:45:14;;;;;;;1.33;1.23;;;20.30;99.90;;;;;;5093935;28;20543;-83
2022/08/26 00:47:46;;;;;;;0.70;0.70;;;20.30;99.90;;;;;;5093976;28;20451;-83
2022/08/26 00:50:16;;;;;;;1.83;1.27;;;20.40;99.90;;;;;;5093921;28;20432;-83
2022/08/26 00:52:45;;;;;;;1.03;0.93;;;20.30;99.90;;;;;;5093344;28;20825;-83
2022/08/26 00:55:16;;;;;;;1.87;1.20;;;20.30;99.90;;;;;;5093790;28;20817;-83
2022/08/26 00:57:43;;;;;;;1.33;1.00;;;20.30;99.90;;;;;;5093791;28;20514;-83
2022/08/26 01:00:15;;;;;;;0.90;0.90;;;20.20;99.90;;;;;;5093723;28;20454;-83
2022/08/26 01:02:43;;;;;;;1.33;1.33;;;20.20;99.90;;;;;;5093699;28;20475;-83
2022/08/26 01:05:11;;;;;;;1.80;1.20;;;20.20;99.90;;;;;;5093594;28;20456;-83
2022/08/26 01:07:39;;;;;;;1.87;1.20;;;20.20;99.90;;;;;;5093648;28;20447;-83
2022/08/26 01:10:09;;;;;;;1.47;1.37;;;20.20;99.90;;;;;;5093583;28;20439;-83
2022/08/26 01:12:40;;;;;;;1.37;1.00;;;20.20;99.90;;;;;;5093455;28;20546;-83
2022/08/26 01:15:09;;;;;;;2.00;1.13;;;20.20;99.90;;;;;;5093528;28;20439;-83
2022/08/26 01:17:39;;;;;;;3.20;1.20;;;20.10;99.90;;;;;;5094035;28;20459;-83
2022/08/26 01:20:12;;;;;;;1.10;0.63;;;20.10;99.90;;;;;;5093445;28;20448;-83
2022/08/26 01:22:50;;;;;;;2.63;1.20;;;20.10;99.90;;;;;;5093383;28;20477;-83
2022/08/26 01:25:18;;;;;;;1.70;1.10;;;20.10;99.90;;;;;;5093103;28;20486;-83
2022/08/26 01:27:45;;;;;;;1.33;1.23;;;20.10;99.90;;;;;;5093407;28;20451;-83
2022/08/26 01:30:13;;;;;;;1.00;0.90;;;20.10;99.90;;;;;;5093070;28;20848;-83
2022/08/26 01:32:41;;;;;;;1.33;1.23;;;20.00;99.90;;;;;;5093226;28;20464;-82
2022/08/26 01:35:08;;;;;;;1.20;0.90;;;20.00;99.90;;;;;;5093306;28;20456;-83
2022/08/26 01:37:38;;;;;;;3.10;1.80;;;20.00;99.90;;;;;;5093317;28;20467;-83
2022/08/26 01:40:09;;;;;;;0.80;0.80;;;19.90;99.90;;;;;;5093832;28;20444;-83
2022/08/26 01:42:36;;;;;;;3.63;1.23;;;20.00;99.90;;;;;;5096414;28;20994;-83
2022/08/26 01:45:08;;;;;;;1.10;1.00;;;19.90;99.90;;;;;;5097328;28;20452;-83
2022/08/26 01:47:37;;;;;;;1.63;1.53;;;19.90;99.90;;;;;;5097342;28;20455;-83
2022/08/26 01:50:10;;;;;;;2.33;1.03;;;19.80;99.90;;;;;;5097211;28;20460;-83
2022/08/26 01:52:41;;;;;;;2.40;1.37;;;19.80;99.90;;;;;;5097077;28;20468;-83
2022/08/26 01:55:12;;;;;;;1.67;1.30;;;19.80;99.90;;;;;;5098004;28;20440;-83
2022/08/26 01:57:39;;;;;;;1.13;1.00;;;19.70;99.90;;;;;;5097402;28;20467;-83
2022/08/26 02:00:09;;;;;;;1.10;0.90;;;19.70;99.90;;;;;;5097023;28;20443;-83
2022/08/26 02:02:36;;;;;;;1.47;0.90;;;19.70;99.90;;;;;;5096966;28;20854;-83
2022/08/26 02:05:06;;;;;;;0.80;0.80;;;19.60;99.90;;;;;;5096706;28;20970;-83
2022/08/26 02:07:33;;;;;;;1.13;1.00;;;19.70;99.90;;;;;;5096956;28;20451;-83
2022/08/26 02:10:00;;;;;;;2.57;1.60;;;19.60;99.90;;;;;;5096955;28;20451;-82
2022/08/26 02:12:30;;;;;;;0.80;0.80;;;19.60;99.90;;;;;;5096818;28;20460;-83
2022/08/26 02:15:00;;;;;;;1.27;1.10;;;19.60;99.90;;;;;;5096705;28;20475;-83
2022/08/26 02:17:34;;;;;;;0.90;0.80;;;19.50;99.90;;;;;;5096767;28;20943;-83
2022/08/26 02:20:03;;;;;;;2.87;1.27;;;19.50;99.90;;;;;;5096723;28;20435;-83
2022/08/26 02:22:31;;;;;;;0.97;0.97;;;19.50;99.90;;;;;;5096316;28;20474;-83
2022/08/26 02:25:00;;;;;;;1.10;1.00;;;19.50;99.90;;;;;;5096409;28;20476;-83
2022/08/26 02:27:32;;;;;;;1.20;1.10;;;19.40;99.90;;;;;;5096560;28;20456;-83
2022/08/26 02:30:07;;;;;;;1.90;1.40;;;19.30;99.90;;;;;;5096514;28;20432;-83
2022/08/26 02:32:33;;;;;;;2.30;1.20;;;19.30;99.90;;;;;;5096290;28;20946;-83
2022/08/26 02:35:00;;;;;;;2.27;0.87;;;19.30;99.90;;;;;;5096324;28;20484;-82
2022/08/26 02:37:29;;;;;;;2.80;1.30;;;19.30;99.90;;;;;;5100631;28;20470;-83
2022/08/26 02:39:56;;;;;;;4.83;1.40;;;19.30;99.90;;;;;;5096759;28;20804;-83
2022/08/26 02:42:22;;;;;;;2.27;1.37;;;19.30;99.90;;;;;;5096170;28;20494;-83
2022/08/26 02:44:50;;;;;;;2.50;1.60;;;19.30;99.90;;;;;;5095906;28;20452;-83
2022/08/26 02:47:17;;;;;;;2.50;1.47;;;19.20;99.90;;;;;;5095872;28;20815;-83
2022/08/26 02:49:45;;;;;;;2.93;2.17;;;19.30;99.90;;;;;;5095886;28;20443;-83
2022/08/26 02:52:12;;;;;;;1.77;1.47;;;19.20;99.90;;;;;;5095750;28;20918;-83
2022/08/26 02:54:39;;;;;;;1.30;1.20;;;19.20;99.90;;;;;;5095954;28;20479;-82
2022/08/26 02:57:05;;;;;;;1.10;1.00;;;19.20;99.90;;;;;;5095959;28;20448;-83
2022/08/26 02:59:34;;;;;;;1.40;1.20;;;19.20;99.90;;;;;;5095953;28;20466;-82
2022/08/26 03:02:03;;;;;;;1.80;1.70;;;19.20;99.90;;;;;;5095453;28;21001;-82
2022/08/26 03:04:30;;;;;;;1.67;1.10;;;19.20;99.90;;;;;;5095816;28;20451;-82
2022/08/26 03:06:56;;;;;;;1.57;1.00;;;19.20;99.90;;;;;;5095665;28;20448;-82
2022/08/26 03:09:24;;;;;;;2.10;1.40;;;19.10;99.90;;;;;;5095435;28;20943;-83
2022/08/26 03:11:51;;;;;;;0.97;0.97;;;19.10;99.90;;;;;;5095645;28;20464;-83
2022/08/26 03:14:17;;;;;;;2.50;1.27;;;19.10;99.90;;;;;;5095230;28;20828;-82
2022/08/26 03:16:44;;;;;;;1.53;0.97;;;19.10;99.90;;;;;;5095356;28;20451;-82
2022/08/26 03:19:12;;;;;;;1.60;1.23;;;19.10;99.90;;;;;;5095551;28;20446;-83
2022/08/26 03:21:39;;;;;;;1.47;1.20;;;19.20;99.90;;;;;;5095426;28;20472;-83
2022/08/26 03:24:06;;;;;;;1.57;1.20;;;19.10;99.90;;;;;;5095104;28;20813;-83
2022/08/26 03:26:33;;;;;;;1.00;1.00;;;19.10;99.90;;;;;;5094921;28;20986;-83
2022/08/26 03:31:44;;;;;;;1.80;1.30;;;19.10;99.90;;;;;;5095166;28;20458;-82
2022/08/26 03:34:12;;;;;;;1.60;1.50;;;19.10;99.90;;;;;;5095167;28;20529;-83
2022/08/26 03:36:39;;;;;;;1.20;1.10;;;19.00;99.90;;;;;;5094917;28;20939;-83
2022/08/26 03:39:05;;;;;;;1.57;1.00;;;19.10;99.90;;;;;;5095143;28;20443;-83
2022/08/26 03:41:35;;;;;;;1.07;0.90;;;19.10;99.90;;;;;;5095042;28;20468;-83
2022/08/26 03:44:02;;;;;;;1.90;1.30;;;19.10;99.90;;;;;;5094700;28;20892;-83
2022/08/26 03:46:31;;;;;;;1.43;1.27;;;19.00;99.90;;;;;;5094671;28;20497;-83
2022/08/26 03:48:58;;;;;;;1.13;1.03;;;19.10;99.90;;;;;;5094608;28;20889;-83
2022/08/26 03:51:26;;;;;;;2.73;1.30;;;19.00;99.90;;;;;;5094883;28;20811;-83
2022/08/26 03:53:53;;;;;;;1.40;1.23;;;19.00;99.90;;;;;;5094759;28;20480;-83
2022/08/26 03:56:20;;;;;;;2.03;1.30;;;19.00;99.90;;;;;;5094554;28;20448;-83
2022/08/26 03:58:46;;;;;;;1.87;1.10;;;19.00;99.90;;;;;;5094799;28;20458;-83
2022/08/26 04:01:14;;;;;;;3.47;1.13;;;18.90;99.90;;;;;;5094405;28;20842;-83
2022/08/26 04:04:00;;;;;;;1.70;1.60;;;18.90;99.90;;;;;;5093994;28;20440;-83
2022/08/26 04:06:30;;;;;;;2.53;1.17;;;18.90;99.90;;;;;;5094701;28;20436;-83
2022/08/26 04:08:59;;;;;;;1.13;1.13;;;18.80;99.90;;;;;;5094657;28;20428;-83
2022/08/26 04:11:30;;;;;;;1.57;1.00;;;18.80;99.90;;;;;;5094793;28;20468;-83
2022/08/26 04:13:58;;;;;;;2.00;1.80;;;18.80;99.90;;;;;;5095603;28;20468;-83
2022/08/26 04:16:25;;;;;;;3.23;1.27;;;18.80;99.90;;;;;;5095032;28;20939;-83
2022/08/26 04:18:52;;;;;;;1.47;1.20;;;18.70;99.90;;;;;;5094501;28;20448;-83
2022/08/26 04:21:19;;;;;;;2.03;1.23;;;18.70;99.90;;;;;;5094295;28;20472;-83
2022/08/26 04:23:48;;;;;;;1.10;1.10;;;18.70;99.90;;;;;;5094335;28;20440;-83
2022/08/26 04:26:15;;;;;;;1.83;1.00;;;18.70;99.90;;;;;;5093890;28;20571;-83
2022/08/26 04:28:42;;;;;;;1.30;1.13;;;18.70;99.90;;;;;;5094476;28;20939;-83
2022/08/26 04:31:10;;;;;;;1.03;0.90;;;18.70;99.90;;;;;;5093861;28;20970;-83
2022/08/26 04:33:37;;;;;;;1.33;1.10;;;18.70;99.90;;;;;;5093837;28;20940;-83
2022/08/26 04:36:05;;;;;;;1.43;1.33;;;18.70;99.90;;;;;;5094109;28;20444;-83
2022/08/26 04:38:33;;;;;;;2.20;1.43;;;18.60;99.90;;;;;;5093999;28;20440;-83
2022/08/26 04:41:02;;;;;;;1.53;1.10;;;18.70;99.90;;;;;;5094202;28;20440;-83
2022/08/26 04:43:30;;;;;;;3.30;2.23;;;18.60;99.90;;;;;;5095516;28;20448;-83
2022/08/26 04:45:58;;;;;;;1.40;1.30;;;18.60;99.90;;;;;;5094815;28;20955;-83
2022/08/26 04:48:26;;;;;;;2.73;1.57;;;18.60;99.90;;;;;;5093948;28;20436;-83
2022/08/26 04:50:53;;;;;;;4.83;1.40;;;18.70;99.90;;;;;;5093827;28;20454;-83
2022/08/26 04:53:19;;;;;;;1.70;1.00;;;18.70;99.90;;;;;;5093850;28;20444;-83
2022/08/26 04:55:46;;;;;;;1.33;1.20;;;18.60;99.90;;;;;;5093739;28;20483;-83
2022/08/26 04:58:16;;;;;;;2.03;1.50;;;18.70;99.90;;;;;;5093781;28;20443;-83
2022/08/26 05:00:44;;;;;;;1.07;0.97;;;18.70;99.90;;;;;;5093785;28;20436;-83
2022/08/26 05:03:11;;;;;;;1.50;1.40;;;18.70;99.90;;;;;;5093343;28;20461;-83
2022/08/26 05:05:39;;;;;;;0.90;0.80;;;18.70;99.90;;;;;;5093651;28;20532;-83
2022/08/26 05:08:06;;;;;;;1.30;1.20;;;18.70;99.90;;;;;;5093682;28;20447;-83
2022/08/26 05:10:34;;;;;;;4.63;1.00;;;18.70;99.90;;;;;;5093293;28;20983;-83
2022/08/26 05:13:02;;;;;;;1.40;1.30;;;18.70;99.90;;;;;;5093555;28;20468;-83
2022/08/26 05:15:30;;;;;;;1.40;1.20;;;18.70;99.90;;;;;;5093428;28;20533;-83
2022/08/26 05:17:57;;;;;;;2.20;2.00;;;18.80;99.90;;;;;;5093208;28;20439;-83
2022/08/26 05:20:24;;;;;;;1.77;1.67;;;18.80;99.90;;;;;;5093514;28;20443;-83
2022/08/26 05:22:51;;;;;;;1.20;1.10;;;18.80;99.90;;;;;;5093109;28;20475;-83
2022/08/26 05:25:18;;;;;;;1.53;1.43;;;18.80;99.90;;;;;;5093048;28;20837;-83
2022/08/26 05:27:45;;;;;;;1.50;1.13;;;18.80;99.90;;;;;;5093111;28;20448;-83
2022/08/26 05:30:12;;;;;;;3.13;1.07;;;18.80;99.90;;;;;;5093357;28;20520;-83
2022/08/26 05:32:40;;;;;;;5.63;1.80;;;18.80;99.90;;;;;;5093348;28;20466;-83
2022/08/26 05:35:08;;;;;;;1.00;0.90;;;18.80;99.90;;;;;;5093017;28;20858;-83
2022/08/26 05:37:36;;;;;;;2.63;1.40;;;18.80;99.90;;;;;;5093346;28;20440;-83
2022/08/26 05:40:03;;;;;;;2.20;1.37;;;18.80;99.90;;;;;;5093323;28;20440;-83
2022/08/26 05:42:30;;;;;;;1.60;1.50;;;18.80;99.90;;;;;;5093239;28;20472;-83
2022/08/26 05:44:57;;;;;;;3.40;0.97;;;18.80;99.90;;;;;;5093111;28;20459;-83
2022/08/26 05:47:25;;;;;;;2.50;1.00;;;18.80;99.90;;;;;;5093277;28;20565;-83
2022/08/26 05:49:53;;;;;;;1.43;1.23;;;18.80;99.90;;;;;;5093378;28;20500;-83
2022/08/26 05:52:20;;;;;;;1.03;1.03;;;18.90;99.90;;;;;;5093152;28;20544;-83
2022/08/26 05:54:47;;;;;;;3.33;1.70;;;19.00;99.90;;;;;;5093918;28;20843;-83
2022/08/26 05:57:13;;;;;;;6.23;1.67;;;19.00;99.90;;;;;;5093449;28;20443;-83
2022/08/26 05:59:40;;;;;;;1.93;1.50;;;19.10;99.90;;;;;;5094724;28;20452;-82
2022/08/26 06:02:07;;;;;;;1.60;1.50;;;19.40;99.90;;;;;;5102345;28;20468;-82
2022/08/26 06:04:35;;;;;;;1.80;1.53;;;19.80;99.90;;;;;;5103505;28;20444;-81
2022/08/26 06:07:03;;;;;;;1.30;1.20;;;20.10;99.90;;;;;;5103821;28;20810;-81
2022/08/26 06:09:29;;;;;;;2.17;1.63;;;20.20;99.90;;;;;;5098255;28;20448;-82
2022/08/26 06:11:57;;;;;;;1.77;1.67;;;20.30;99.90;;;;;;5093700;28;20463;-83
2022/08/26 06:14:24;;;;;;;2.97;1.10;;;20.30;99.90;;;;;;5092989;28;20484;-83
2022/08/26 06:16:51;;;;;;;1.30;1.20;;;20.40;99.90;;;;;;5093025;28;20474;-83
2022/08/26 06:19:18;;;;;;;1.33;1.23;;;20.50;99.90;;;;;;5092991;28;20444;-83
2022/08/26 06:21:48;;;;;;;1.53;1.37;;;20.50;99.90;;;;;;5092875;28;20516;-83
2022/08/26 06:27:03;;;;;;;2.40;2.00;;;20.80;99.90;;;;;;5093689;28;20445;-83
2022/08/26 06:29:32;;;;;;;3.23;1.43;;;20.90;99.90;;;;;;5096300;28;20534;-83
2022/08/26 06:32:01;;;;;;;1.53;1.43;;;21.10;99.90;;;;;;5096490;28;20861;-84
2022/08/26 06:34:28;;;;;;;1.63;1.10;;;21.20;99.90;;;;;;5096454;28;20480;-83
2022/08/26 06:36:56;;;;;;;1.07;0.90;;;21.40;99.90;;;;;;5096440;28;20454;-83
2022/08/26 06:39:24;;;;;;;4.50;2.23;;;21.60;99.90;;;;;;5096029;28;21005;-83
2022/08/26 06:41:51;;;;;;;1.83;1.20;;;21.70;99.90;;;;;;5096290;28;20459;-84
2022/08/26 06:44:19;;;;;;;1.80;1.30;;;21.70;99.90;;;;;;5096319;28;20462;-84
2022/08/26 06:46:45;;;;;;;1.40;1.20;;;21.90;99.90;;;;;;5097211;28;20444;-84
2022/08/26 06:49:13;;;;;;;1.40;1.30;;;22.00;99.90;;;;;;5096217;28;20447;-83
2022/08/26 06:51:41;;;;;;;3.00;1.60;;;22.20;99.90;;;;;;5096113;28;20482;-84
2022/08/26 06:54:08;;;;;;;3.87;1.63;;;22.30;99.90;;;;;;5095960;28;20443;-83
2022/08/26 06:56:39;;;;;;;2.87;1.70;;;22.50;99.90;;;;;;5096547;28;20440;-84
2022/08/26 06:59:07;;;;;;;1.63;1.53;;;22.60;99.90;;;;;;5097267;28;20480;-83
2022/08/26 07:01:37;;;;;;;2.50;1.07;;;22.80;99.90;;;;;;5095578;28;20476;-83
2022/08/26 07:04:06;;;;;;;2.90;2.10;;;23.00;99.90;;;;;;5095968;28;20451;-83
2022/08/26 07:06:38;;;;;;;3.50;2.17;;;23.10;99.90;;;;;;5095602;28;20408;-83
2022/08/26 07:09:06;;;;;;;2.80;2.60;;;23.20;99.90;;;;;;5096607;28;20588;-83
2022/08/26 07:11:34;;;;;;;1.47;1.37;;;23.40;99.90;;;;;;5097775;28;20225;-84
2022/08/26 07:14:03;;;;;;;2.77;1.70;;;23.60;99.90;;;;;;5098178;28;20539;-84
2022/08/26 07:16:30;;;;;;;3.07;1.70;;;23.80;99.90;;;;;;5099588;28;20225;-84
2022/08/26 07:18:58;;;;;;;1.95;1.85;;;23.90;99.90;;;;;;5100589;28;20233;-83
2022/08/26 07:21:25;;;;;;;2.35;2.03;;;24.00;99.90;;;;;;5098632;28;20225;-83
2022/08/26 07:23:53;;;;;;;1.80;1.40;;;24.00;99.90;;;;;;5095661;28;20270;-83
2022/08/26 07:26:23;;;;;;;2.42;1.48;;;24.20;99.90;;;;;;5095168;28;20229;-83
2022/08/26 07:28:51;;;;;;;2.03;1.65;;;24.30;99.90;;;;;;5095745;28;20198;-83
2022/08/26 07:31:21;;;;;;;1.60;1.50;;;24.50;99.90;;;;;;5095241;28;20222;-83
2022/08/26 07:33:48;;;;;;;1.80;1.60;;;24.60;99.90;;;;;;5095668;28;20549;-82
2022/08/26 07:36:17;;;;;;;1.67;1.40;;;24.60;99.90;;;;;;5095023;28;20229;-82
2022/08/26 07:38:45;;;;;;;1.77;1.60;;;24.80;99.90;;;;;;5093740;28;20691;-82
2022/08/26 07:41:13;;;;;;;3.40;1.77;;;24.90;99.90;;;;;;5094755;28;20665;-81
2022/08/26 07:43:40;;;;;;;1.88;1.77;;;25.10;99.90;;;;;;5094902;28;20665;-81
2022/08/26 07:46:07;;;;;;;2.25;1.70;;;25.20;99.90;;;;;;5094799;28;20200;-81
2022/08/26 07:48:36;;;;;;;2.55;1.50;;;25.40;99.90;;;;;;5095024;28;20202;-82
2022/08/26 07:51:03;;;;;;;1.90;1.42;;;25.60;99.90;;;;;;5094889;28;20250;-82
2022/08/26 07:53:30;;;;;;;2.22;1.60;;;25.70;99.90;;;;;;5095589;28;20606;-81
2022/08/26 07:55:58;;;;;;;1.40;1.23;;;25.80;99.90;;;;;;5094775;28;20217;-82
2022/08/26 07:58:25;;;;;;;1.60;1.42;;;25.80;99.90;;;;;;5094824;28;20248;-82
2022/08/26 08:00:52;;;;;;;1.60;1.50;;;25.80;99.90;;;;;;5094802;28;20205;-82
2022/08/26 08:03:19;;;;;;;2.00;1.67;;;26.00;99.90;;;;;;5094750;28;20220;-82
2022/08/26 08:05:47;;;;;;;1.42;1.30;;;26.30;99.90;;;;;;5094391;28;20247;-82
2022/08/26 08:08:15;;;;;;;1.17;1.08;;;26.40;99.90;;;;;;5094649;28;20205;-82
2022/08/26 08:10:43;;;;;;;1.42;1.30;;;26.40;99.90;;;;;;5095078;28;20684;-81
2022/08/26 08:13:10;;;;;;;1.90;1.13;;;26.40;99.90;;;;;;5094489;28;20263;-81
2022/08/26 08:15:37;;;;;;;1.98;1.52;;;26.30;99.90;;;;;;5094429;28;20218;-81
2022/08/26 08:18:05;;;;;;;1.52;1.42;;;26.10;99.90;;;;;;5094124;28;20679;-81
2022/08/26 08:20:32;;;;;;;2.00;1.23;;;25.90;99.90;;;;;;5094377;28;20216;-81
2022/08/26 08:23:02;;;;;;;1.30;1.20;;;25.70;99.90;;;;;;5094238;28;20317;-81
2022/08/26 08:25:30;;;;;;;3.30;1.80;;;25.60;99.90;;;;;;5094030;28;20322;-81
2022/08/26 08:27:56;;;;;;;3.17;1.30;;;25.70;99.90;;;;;;5094250;28;20197;-81
2022/08/26 08:30:23;;;;;;;1.35;1.17;;;25.80;99.90;;;;;;5094225;28;20213;-83
2022/08/26 08:32:51;;;;;;;1.55;1.45;;;26.10;99.90;;;;;;5094864;28;20217;-81
2022/08/26 08:35:21;;;;;;;1.73;1.40;;;26.30;99.90;;;;;;5094086;28;20216;-81
2022/08/26 08:37:49;;;;;;;1.50;1.40;;;26.50;99.90;;;;;;5094349;28;20196;-81
2022/08/26 08:40:17;;;;;;;1.60;1.15;;;26.60;99.90;;;;;;5094039;28;20204;-82
2022/08/26 08:42:51;;;;;;;1.58;1.30;;;26.80;99.90;;;;;;5093964;28;20225;-82
2022/08/26 08:45:25;;;;;;;2.90;1.65;;;26.90;99.90;;;;;;5094340;28;20626;-82
2022/08/26 08:47:55;;;;;;;1.58;1.23;;;27.10;99.90;;;;;;5093979;28;20182;-82
2022/08/26 08:50:26;;;;;;;1.38;1.27;;;27.20;99.90;;;;;;5093689;28;20577;-82
2022/08/26 08:53:00;;;;;;;2.75;1.85;;;27.50;99.90;;;;;;5093858;28;20225;-81
2022/08/26 08:55:44;;;;;;;1.85;1.25;;;27.80;99.90;;;;;;5093770;28;20209;-82
2022/08/26 08:58:17;;;;;;;1.40;1.30;;;28.00;99.90;;;;;;5093873;28;20193;-82
2022/08/26 09:00:50;;;;;;;1.52;1.42;;;28.40;99.90;;;;;;5093807;28;20197;-82
2022/08/26 09:03:31;;;;;;;1.92;1.30;;;29.00;99.70;;;;;;5093705;28;20634;-82
2022/08/26 09:06:00;;;;;;;2.83;1.73;;;29.70;98.90;;;;;;5093699;28;20178;-82
2022/08/26 09:08:34;;;;;;;1.80;1.70;;;30.40;97.50;;;;;;5093954;28;20202;-82
2022/08/26 09:11:03;;;;;;;1.55;1.20;;;30.50;95.70;;;;;;5093636;28;20194;-82
2022/08/26 09:13:30;;;;;;;1.52;1.35;;;30.50;95.60;;;;;;5093560;28;20207;-82
2022/08/26 09:16:06;;;;;;;1.40;1.30;;;30.50;95.60;;;;;;5093493;28;20223;-82
2022/08/26 09:19:02;;;;;;;1.73;1.48;;;30.50;95.60;;;;;;5093613;28;20226;-82
2022/08/26 09:21:30;;;;;;;2.33;1.48;;;30.70;94.60;;;;;;5093074;28;20590;-82
2022/08/26 09:23:57;;;;;;;3.47;1.58;;;30.90;93.40;;;;;;5093505;28;20192;-81
2022/08/26 09:26:28;;;;;;;2.38;1.30;;;31.00;92.80;;;;;;5093053;28;20229;-82
2022/08/26 09:28:57;;;;;;;2.67;1.67;;;31.00;92.70;;;;;;5093140;28;20700;-81
2022/08/26 09:31:27;;;;;;;4.20;1.80;;;30.90;92.50;;;;;;5093316;28;20228;-81
2022/08/26 09:34:12;;;;;;;1.30;1.13;;;30.80;92.70;;;;;;5093377;28;20670;-82
2022/08/26 09:36:41;;;;;;;1.20;1.10;;;30.70;92.50;;;;;;5093396;28;20241;-82
2022/08/26 09:39:27;;;;;;;1.38;1.25;;;30.70;92.30;;;;;;5093365;28;20205;-82
2022/08/26 09:42:08;;;;;;;1.23;1.08;;;30.40;91.60;;;;;;5093313;28;20239;-81
2022/08/26 09:44:51;;;;;;;2.35;1.48;;;30.10;91.90;;;;;;5093298;28;20193;-82
2022/08/26 09:47:21;;;;;;;2.70;1.88;;;29.60;92.40;;;;;;5092989;28;20182;-82
2022/08/26 09:49:57;;;;;;;7.90;1.65;;;29.20;92.90;;;;;;5093273;28;20202;-81
2022/08/26 09:52:26;;;;;;;1.85;1.38;;;28.90;93.20;;;;;;5093195;28;20224;-82
2022/08/26 09:55:07;;;;;;;1.50;1.40;;;28.70;93.90;;;;;;5093219;28;20255;-82
2022/08/26 09:57:44;;;;;;;2.35;1.88;;;28.40;94.20;;;;;;5093213;28;20185;-81
2022/08/26 10:00:29;;;;;;;1.60;1.50;;;28.20;94.70;;;;;;5093204;28;20557;-82
2022/08/26 10:02:56;;;;;;;3.50;1.25;;;27.90;95.60;;;;;;5095355;28;20250;-82
2022/08/26 10:05:34;;;;;;;2.38;1.58;;;27.80;95.80;;;;;;5097065;28;20224;-83
2022/08/26 10:08:17;;;;;;;1.77;1.17;;;27.90;95.70;;;;;;5097028;28;20185;-83
2022/08/26 10:10:45;;;;;;;2.65;1.35;;;28.00;95.30;;;;;;5097048;28;20193;-83
2022/08/26 10:13:19;;;;;;;2.17;1.65;;;28.10;94.50;;;;;;5096546;28;20220;-83
2022/08/26 10:15:59;;;;;;;1.70;1.60;;;28.00;95.20;;;;;;5096521;28;20699;-83
2022/08/26 10:18:30;;;;;;;1.58;1.17;;;27.80;95.60;;;;;;5096842;28;20186;-84
2022/08/26 10:21:03;;;;;;;3.20;1.38;;;27.70;95.40;;;;;;5096747;28;20190;-84
2022/08/26 10:23:36;;;;;;;2.15;1.15;;;27.70;95.60;;;;;;5096446;28;20668;-83
2022/08/26 10:26:08;;;;;;;2.28;2.00;;;27.60;96.00;;;;;;5096353;28;20233;-84
2022/08/26 10:28:41;;;;;;;4.55;2.10;;;27.60;95.90;;;;;;5096683;28;20561;-84
2022/08/26 10:31:19;;;;;;;4.90;2.00;;;27.60;95.80;;;;;;5096244;28;20645;-83
2022/08/26 10:33:46;;;;;;;2.13;1.50;;;27.40;95.70;;;;;;5096206;28;20663;-84
2022/08/26 10:39:01;;;;;;;7.38;1.92;;;27.40;96.30;;;;;;5095736;28;20191;-83
2022/08/26 10:41:33;;;;;;;1.35;1.25;;;27.30;96.30;;;;;;5096348;28;20252;-83
2022/08/26 10:44:05;;;;;;;1.10;1.00;;;27.40;95.60;;;;;;5096075;28;20588;-84
2022/08/26 10:46:38;;;;;;;1.27;1.17;;;27.40;96.00;;;;;;5096315;28;20189;-83
2022/08/26 10:49:08;;;;;;;3.30;1.85;;;27.40;95.90;;;;;;5095950;28;20707;-84
2022/08/26 10:51:41;;;;;;;1.50;1.35;;;27.40;95.70;;;;;;5096052;28;20252;-84
2022/08/26 10:54:12;;;;;;;4.78;1.90;;;27.50;95.80;;;;;;5096219;28;20193;-83
2022/08/26 10:56:45;;;;;;;8.65;1.85;;;27.70;95.80;;;;;;5096015;28;20210;-83
2022/08/26 10:59:23;;;;;;;1.77;1.67;;;28.00;95.50;;;;;;5096106;28;20184;-83
2022/08/26 11:01:58;;;;;;;2.58;1.52;;;28.60;94.70;;;;;;5095938;28;20242;-84
2022/08/26 11:04:44;;;;;;;5.68;1.52;;;29.20;93.60;;;;;;5095762;28;20652;-83
2022/08/26 11:07:35;;;;;;;1.70;1.50;;;29.80;92.60;;;;;;5095578;28;20631;-83
2022/08/26 11:10:06;;;;;;;2.15;1.65;;;30.20;91.10;;;;;;5095829;28;20195;-83
2022/08/26 11:12:54;;;;;;;2.50;1.38;;;30.40;91.00;;;;;;5095217;28;20222;-83
2022/08/26 11:16:07;;;;;;;1.92;1.63;;;30.50;90.40;;;;;;5095422;28;20192;-84
2022/08/26 11:18:47;;;;;;;1.60;1.10;;;30.40;90.70;;;;;;5080657;28;20211;-83
2022/08/26 11:21:48;;;;;;;1.73;1.55;;;30.50;90.00;;;;;;5095799;28;20230;-83
2022/08/26 11:24:39;;;;;;;1.17;1.02;;;30.60;89.00;;;;;;5095363;28;20207;-83
2022/08/26 11:27:09;;;;;;;3.38;1.85;;;30.60;89.60;;;;;;5086789;28;20224;-83
2022/08/26 11:29:59;;;;;;;1.67;1.40;;;30.80;88.10;;;;;;5095444;28;20205;-83
2022/08/26 11:32:46;;;;;;;1.35;1.10;;;30.80;87.90;;;;;;5095338;28;20235;-83
2022/08/26 11:35:46;;;;;;;2.13;1.23;;;30.60;86.90;;;;;;5095450;28;20190;-84
2022/08/26 11:38:17;;;;;;;2.80;1.50;;;30.30;87.20;;;;;;5095303;28;20204;-84
2022/08/26 11:40:44;;;;;;;1.75;1.65;;;30.00;87.90;;;;;;5095274;28;20189;-83
2022/08/26 11:43:17;;;;;;;1.50;1.40;;;29.70;89.00;;;;;;5094830;28;20228;-83
2022/08/26 11:45:46;;;;;;;1.38;1.27;;;29.60;88.70;;;;;;5095186;28;20671;-84
2022/08/26 11:48:17;;;;;;;1.45;1.33;;;29.50;88.70;;;;;;5095092;28;20208;-83
2022/08/26 11:50:54;;;;;;;2.35;1.80;;;29.40;88.80;;;;;;5095064;28;20208;-83
2022/08/26 11:53:21;;;;;;;2.67;1.00;;;29.30;88.20;;;;;;5095064;28;20191;-83
2022/08/26 11:55:51;;;;;;;2.95;1.58;;;29.30;88.20;;;;;;5094834;28;20206;-84
2022/08/26 11:58:20;;;;;;;1.33;1.23;;;29.40;87.80;;;;;;5094564;28;20203;-84
2022/08/26 12:00:51;;;;;;;7.53;1.83;;;29.40;87.00;;;;;;5094456;28;20199;-83
2022/08/26 12:03:21;;;;;;;1.35;1.13;;;29.60;87.40;;;;;;5094819;28;20186;-83
2022/08/26 12:05:50;;;;;;;2.50;1.42;;;29.70;85.90;;;;;;5094450;28;20564;-83
2022/08/26 12:08:23;;;;;;;1.33;1.10;;;29.80;84.20;;;;;;5094306;28;20208;-84
2022/08/26 12:11:01;;;;;;;2.83;1.40;;;30.00;83.20;;;;;;5094698;28;20190;-84
2022/08/26 12:13:27;;;;;;;1.38;1.27;;;29.90;83.30;;;;;;5094269;28;20192;-83
2022/08/26 12:15:56;;;;;;;2.72;1.60;;;29.70;83.30;;;;;;5094455;28;20212;-84
2022/08/26 12:18:25;;;;;;;2.88;1.70;;;29.60;79.90;;;;;;5094336;28;20204;-83
2022/08/26 12:20:55;;;;;;;1.95;1.15;;;29.40;81.00;;;;;;5094460;28;20203;-84
2022/08/26 12:23:25;;;;;;;2.35;1.40;;;29.10;81.80;;;;;;5094435;28;20214;-84
2022/08/26 12:26:02;;;;;;;1.15;0.93;;;28.90;82.30;;;;;;5093364;28;20743;-84
2022/08/26 12:28:30;;;;;;;1.90;1.23;;;28.70;82.00;;;;;;5094321;28;20189;-83
2022/08/26 12:31:02;;;;;;;0.93;0.93;;;28.60;81.60;;;;;;5094214;28;20205;-83
2022/08/26 12:33:29;;;;;;;1.63;1.20;;;28.40;82.60;;;;;;5094171;28;20208;-83
2022/08/26 12:35:58;;;;;;;1.40;1.00;;;28.30;82.50;;;;;;5093808;28;20677;-83
2022/08/26 12:38:27;;;;;;;0.98;0.98;;;28.20;84.40;;;;;;5093900;28;20197;-83
2022/08/26 12:40:55;;;;;;;3.97;1.30;;;28.20;85.30;;;;;;5093985;28;20197;-83
2022/08/26 12:43:42;;;;;;;2.05;1.20;;;28.10;85.30;;;;;;5094228;28;20202;-83
2022/08/26 12:46:12;;;;;;;1.35;1.25;;;28.10;84.30;;;;;;5093754;28;20208;-83
2022/08/26 12:48:42;;;;;;;7.03;1.30;;;28.00;84.20;;;;;;5093949;28;20205;-83
2022/08/26 12:51:20;;;;;;;5.63;1.35;;;28.10;84.10;;;;;;5093606;28;20633;-83
2022/08/26 12:53:48;;;;;;;1.77;1.27;;;28.00;85.90;;;;;;5093653;28;20177;-83
2022/08/26 12:56:26;;;;;;;1.85;1.30;;;28.10;86.10;;;;;;5093461;28;20692;-83
2022/08/26 12:59:08;;;;;;;1.73;1.40;;;28.10;88.10;;;;;;5093841;28;20181;-84
2022/08/26 13:01:43;;;;;;;1.15;1.00;;;28.10;90.50;;;;;;5093788;28;20229;-83
2022/08/26 13:04:32;;;;;;;1.58;1.48;;;28.20;91.00;;;;;;5093406;28;20756;-83
2022/08/26 13:07:12;;;;;;;1.08;0.98;;;28.10;91.30;;;;;;5093720;28;20548;-84
2022/08/26 13:09:41;;;;;;;2.30;1.30;;;28.20;91.70;;;;;;5093724;28;20274;-83
2022/08/26 13:12:07;;;;;;;1.20;1.00;;;28.20;92.10;;;;;;5093538;28;20244;-83